createdAt,value
2023-09-23T00:01:34.689Z,94319.00
2023-09-23T00:06:36.710Z,94306.16
2023-09-23T00:11:38.789Z,94314.63
2023-09-23T00:16:41.051Z,94322.56
2023-09-23T00:21:43.071Z,94319.00
2023-09-23T00:26:45.332Z,94312.88
2023-09-23T00:31:47.238Z,94320.38
2023-09-23T00:36:49.294Z,94314.22
2023-09-23T00:41:51.325Z,94332.22
2023-09-23T00:46:53.416Z,94331.34
2023-09-23T00:51:55.511Z,94326.97
2023-09-23T00:57:01.796Z,94329.53
2023-09-23T01:02:06.755Z,94334.34
2023-09-23T01:07:10.843Z,94333.22
2023-09-23T01:12:12.772Z,94321.41
2023-09-23T01:17:16.279Z,94328.53
2023-09-23T01:22:24.459Z,94321.84
2023-09-23T01:27:26.517Z,94319.41
2023-09-23T01:32:40.740Z,94320.75
2023-09-23T01:37:43.276Z,94318.72
2023-09-23T01:42:52.776Z,94319.78
2023-09-23T01:47:58.289Z,94307.38
2023-09-23T01:53:03.370Z,94311.66
2023-09-23T01:58:06.916Z,94309.34
2023-09-23T02:03:09.025Z,94313.31
2023-09-23T02:08:11.935Z,94319.66
2023-09-23T02:13:14.218Z,94319.19
2023-09-23T02:18:16.213Z,94317.00
2023-09-23T02:23:19.231Z,94320.47
2023-09-23T02:28:21.584Z,94302.84
2023-09-23T02:33:25.956Z,94310.44
2023-09-23T02:38:32.416Z,94318.03
2023-09-23T02:43:34.469Z,94304.75
2023-09-23T02:48:36.500Z,94303.72
2023-09-23T02:53:39.009Z,94310.75
2023-09-23T02:58:41.669Z,94318.97
2023-09-23T03:03:48.158Z,94304.78
2023-09-23T03:08:55.359Z,94317.06
2023-09-23T03:13:57.669Z,94328.28
2023-09-23T03:19:12.650Z,94344.84
2023-09-23T03:24:14.905Z,94353.50
2023-09-23T03:29:19.779Z,94353.72
2023-09-23T03:34:23.366Z,94348.91
2023-09-23T03:39:26.368Z,94349.19
2023-09-23T03:44:28.349Z,94346.28
2023-09-23T03:49:31.438Z,94353.63
2023-09-23T03:54:34.557Z,94358.06
2023-09-23T03:59:37.293Z,94355.59
2023-09-23T04:04:39.615Z,94373.50
2023-09-23T04:09:41.658Z,94368.03
2023-09-23T04:14:43.686Z,94347.34
2023-09-23T04:19:45.746Z,94380.81
2023-09-23T04:24:48.005Z,94373.91
2023-09-23T04:29:50.220Z,94377.00
2023-09-23T04:34:52.784Z,94378.31
2023-09-23T04:39:56.307Z,94390.66
2023-09-23T04:44:59.352Z,94401.06
2023-09-23T04:50:01.603Z,94398.84
2023-09-23T04:55:04.220Z,94405.91
2023-09-23T05:00:10.458Z,94407.19
2023-09-23T05:05:13.685Z,94402.66
2023-09-23T05:10:15.980Z,94414.63
2023-09-23T05:15:18.602Z,94421.41
2023-09-23T05:20:21.692Z,94420.91
2023-09-23T05:25:25.825Z,94414.00
2023-09-23T05:30:28.638Z,94424.97
2023-09-23T05:35:30.759Z,94425.31
2023-09-23T05:40:37.929Z,94422.00
2023-09-23T05:45:40.016Z,94418.00
2023-09-23T05:50:42.101Z,94438.38
2023-09-23T05:55:45.245Z,94450.97
2023-09-23T06:00:48.262Z,94444.84
2023-09-23T06:05:51.080Z,94459.91
2023-09-23T06:10:53.700Z,94463.66
2023-09-23T06:16:04.500Z,94473.75
2023-09-23T06:21:08.205Z,94479.56
2023-09-23T06:26:11.599Z,94478.28
2023-09-23T06:31:13.931Z,94491.44
2023-09-23T06:36:15.995Z,94487.22
2023-09-23T06:41:18.081Z,94497.56
2023-09-23T06:46:20.082Z,94525.50
2023-09-23T06:51:21.950Z,94525.97
2023-09-23T06:56:25.672Z,94540.59
2023-09-23T07:01:28.155Z,94537.13
2023-09-23T07:06:30.255Z,94548.28
2023-09-23T07:11:32.733Z,94559.44
2023-09-23T07:16:35.142Z,94554.09
2023-09-23T07:21:37.126Z,94575.25
2023-09-23T07:26:39.262Z,94566.91
2023-09-23T07:31:41.231Z,94586.88
2023-09-23T07:36:44.220Z,94597.22
2023-09-23T07:41:46.231Z,94595.59
2023-09-23T07:46:48.273Z,94613.81
2023-09-23T07:51:50.791Z,94626.66
2023-09-23T07:56:52.807Z,94628.03
2023-09-23T08:01:55.011Z,94635.63
2023-09-23T08:06:57.338Z,94625.47
2023-09-23T08:11:59.800Z,94630.72
2023-09-23T08:17:01.725Z,94623.75
2023-09-23T08:22:03.693Z,94632.84
2023-09-23T08:27:07.139Z,94634.19
2023-09-23T08:32:09.247Z,94645.25
2023-09-23T08:37:11.444Z,94627.44
2023-09-23T08:42:13.646Z,94653.25
2023-09-23T08:47:15.869Z,94651.09
2023-09-23T08:52:18.658Z,94662.94
2023-09-23T08:57:21.450Z,94655.66
2023-09-23T09:02:27.092Z,94657.50
2023-09-23T09:07:36.892Z,94671.81
2023-09-23T09:12:39.333Z,94676.66
2023-09-23T09:17:42.678Z,94666.94
2023-09-23T09:22:46.853Z,94667.66
2023-09-23T09:27:49.626Z,94674.63
2023-09-23T09:32:53.070Z,94670.00
2023-09-23T09:38:15.022Z,94664.69
2023-09-23T09:43:21.453Z,94647.31
2023-09-23T09:48:24.245Z,94654.69
2023-09-23T09:53:26.816Z,94649.28
2023-09-23T09:58:39.052Z,94652.00
2023-09-23T10:03:45.849Z,94638.41
2023-09-23T10:08:49.944Z,94631.44
2023-09-23T10:13:52.175Z,94642.66
2023-09-23T10:18:58.520Z,94640.34
2023-09-23T10:24:01.657Z,94643.72
2023-09-23T10:29:05.250Z,94639.78
2023-09-23T10:34:17.286Z,94648.81
2023-09-23T10:39:19.425Z,94642.44
2023-09-23T10:44:25.856Z,94641.66
2023-09-23T10:49:28.777Z,94637.31
2023-09-23T10:54:30.603Z,94633.16
2023-09-23T10:59:33.700Z,94629.47
2023-09-23T11:04:35.716Z,94633.41
2023-09-23T11:09:37.693Z,94635.09
2023-09-23T11:14:51.498Z,94641.16
2023-09-23T11:19:57.494Z,94632.81
2023-09-23T11:24:59.816Z,94626.34
2023-09-23T11:30:02.942Z,94635.69
2023-09-23T11:35:05.721Z,94627.16
2023-09-23T11:40:09.657Z,94625.19
2023-09-23T11:45:13.163Z,94629.44
2023-09-23T11:50:15.221Z,94630.94
2023-09-23T11:55:17.942Z,94626.63
2023-09-23T12:00:21.568Z,94632.25
2023-09-23T12:05:30.098Z,94637.38
2023-09-23T12:10:32.800Z,94616.75
2023-09-23T12:15:35.617Z,94620.16
2023-09-23T12:20:37.957Z,94621.56
2023-09-23T12:25:40.352Z,94611.59
2023-09-23T12:30:42.428Z,94618.50
2023-09-23T12:35:44.575Z,94622.66
2023-09-23T12:40:46.679Z,94614.25
2023-09-23T12:45:49.965Z,94611.44
2023-09-23T12:50:52.453Z,94609.00
2023-09-23T12:55:54.435Z,94608.22
2023-09-23T13:00:56.446Z,94610.50
2023-09-23T13:05:58.605Z,94608.25
2023-09-23T13:11:01.689Z,94586.22
2023-09-23T13:16:04.416Z,94596.69
2023-09-23T13:21:07.989Z,94586.31
2023-09-23T13:26:09.979Z,94594.53
2023-09-23T13:31:12.228Z,94596.56
2023-09-23T13:36:14.293Z,94590.81
2023-09-23T13:41:17.344Z,94588.84
2023-09-23T13:46:20.060Z,94577.94
2023-09-23T13:51:22.592Z,94569.28
2023-09-23T13:56:25.267Z,94556.69
2023-09-23T14:01:27.337Z,94569.19
2023-09-23T14:06:30.535Z,94570.38
2023-09-23T14:11:32.691Z,94569.53
2023-09-23T14:16:34.937Z,94564.16
2023-09-23T14:21:36.813Z,94559.16
2023-09-23T14:26:38.929Z,94565.34
2023-09-23T14:31:41.054Z,94555.97
2023-09-23T14:36:43.549Z,94561.69
2023-09-23T14:41:46.081Z,94555.75
2023-09-23T14:46:48.317Z,94562.81
2023-09-23T14:51:50.672Z,94563.34
2023-09-23T14:56:52.738Z,94545.22
2023-09-23T15:01:54.630Z,94549.19
2023-09-23T15:06:56.796Z,94545.69
2023-09-23T15:11:59.279Z,94545.28
2023-09-23T15:17:01.372Z,94536.03
2023-09-23T15:22:03.763Z,94538.31
2023-09-23T15:27:05.675Z,94535.56
2023-09-23T15:32:07.835Z,94529.75
2023-09-23T15:37:09.712Z,94511.59
2023-09-23T15:42:12.932Z,94520.06
2023-09-23T15:47:15.407Z,94524.69
2023-09-23T15:52:18.096Z,94519.31
2023-09-23T15:57:20.325Z,94520.50
2023-09-23T16:02:22.488Z,94513.47
2023-09-23T16:07:24.573Z,94519.72
2023-09-23T16:12:26.784Z,94526.28
2023-09-23T16:17:28.975Z,94512.34
2023-09-23T16:22:31.035Z,94516.19
2023-09-23T16:27:34.501Z,94513.41
2023-09-23T16:32:36.913Z,94517.66
2023-09-23T16:37:39.021Z,94523.09
2023-09-23T16:42:41.218Z,94526.06
2023-09-23T16:47:45.454Z,94520.53
2023-09-23T16:52:47.468Z,94533.38
2023-09-23T16:57:49.590Z,94527.44
2023-09-23T17:02:52.067Z,94527.78
2023-09-23T17:07:54.413Z,94527.81
2023-09-23T17:12:56.402Z,94525.13
2023-09-23T17:17:58.467Z,94532.06
2023-09-23T17:23:00.428Z,94531.31
2023-09-23T17:28:02.647Z,94529.66
2023-09-23T17:33:05.927Z,94541.63
2023-09-23T17:38:08.125Z,94543.13
2023-09-23T17:43:10.239Z,94542.28
2023-09-23T17:48:13.598Z,94544.34
2023-09-23T17:53:15.506Z,94546.13
2023-09-23T17:58:17.351Z,94554.88
2023-09-23T18:03:20.046Z,94547.81
2023-09-23T18:08:22.419Z,94557.69
2023-09-23T18:13:24.604Z,94559.38
2023-09-23T18:18:28.640Z,94571.59
2023-09-23T18:23:30.920Z,94557.47
2023-09-23T18:28:33.083Z,94575.22
2023-09-23T18:33:35.317Z,94582.28
2023-09-23T18:38:37.559Z,94586.81
2023-09-23T18:43:39.901Z,94588.06
2023-09-23T18:48:42.037Z,94589.56
2023-09-23T18:53:44.098Z,94588.97
2023-09-23T18:58:46.095Z,94594.72
2023-09-23T19:03:48.478Z,94585.00
2023-09-23T19:08:51.644Z,94599.22
2023-09-23T19:13:53.747Z,94599.53
2023-09-23T19:18:55.771Z,94607.06
2023-09-23T19:23:58.471Z,94616.16
2023-09-23T19:29:00.671Z,94628.41
2023-09-23T19:34:02.861Z,94615.91
2023-09-23T19:39:05.031Z,94623.66
2023-09-23T19:44:07.228Z,94627.94
2023-09-23T19:49:09.401Z,94631.13
2023-09-23T19:54:12.130Z,94637.75
2023-09-23T19:59:14.084Z,94645.78
2023-09-23T20:04:16.020Z,94658.47
2023-09-23T20:09:18.197Z,94666.47
2023-09-23T20:14:20.764Z,94669.38
2023-09-23T20:19:22.793Z,94664.94
2023-09-23T20:24:25.125Z,94670.50
2023-09-23T20:29:27.127Z,94678.25
2023-09-23T20:34:29.356Z,94685.75
2023-09-23T20:39:31.690Z,94681.63
2023-09-23T20:44:33.736Z,94676.94
2023-09-23T20:49:35.834Z,94678.09
2023-09-23T20:54:37.699Z,94681.94
2023-09-23T20:59:39.858Z,94673.25
2023-09-23T21:04:42.351Z,94683.25
2023-09-23T21:09:44.450Z,94678.81
2023-09-23T21:14:46.572Z,94687.88
2023-09-23T21:19:48.650Z,94690.03
2023-09-23T21:24:50.877Z,94700.91
2023-09-23T21:29:52.882Z,94703.88
2023-09-23T21:34:54.979Z,94696.44
2023-09-23T21:39:57.000Z,94689.16
2023-09-23T21:44:59.272Z,94690.03
2023-09-23T21:50:09.686Z,94692.81
2023-09-23T21:55:14.750Z,94681.59
2023-09-23T22:00:29.625Z,94683.84
2023-09-23T22:05:32.139Z,94685.41
2023-09-23T22:10:34.261Z,94680.31
2023-09-23T22:15:36.414Z,94688.41
2023-09-23T22:20:39.532Z,94695.16
2023-09-23T22:25:41.790Z,94695.72
2023-09-23T22:30:46.110Z,94686.53
2023-09-23T22:35:48.731Z,94692.94
2023-09-23T22:40:51.217Z,94699.03
2023-09-23T22:45:53.638Z,94701.97
2023-09-23T22:50:56.144Z,94712.53
2023-09-23T22:56:01.002Z,94704.69
2023-09-23T23:01:06.844Z,94706.75
2023-09-23T23:06:09.112Z,94697.34
2023-09-23T23:11:11.746Z,94695.59
2023-09-23T23:16:14.150Z,94690.22
2023-09-23T23:21:16.464Z,94678.00
2023-09-23T23:26:18.579Z,94671.53
2023-09-23T23:31:22.000Z,94674.56
2023-09-23T23:36:23.849Z,94672.22
2023-09-23T23:41:27.275Z,94676.25
2023-09-23T23:46:29.674Z,94679.97
2023-09-23T23:51:31.771Z,94676.63
2023-09-23T23:56:34.152Z,94675.50
